createdAt,value
2022-07-28T00:00:38.779Z,99818.44
2022-07-28T00:01:40.377Z,99813.13
2022-07-28T00:02:42.129Z,99813.41
2022-07-28T00:03:46.035Z,99822.94
2022-07-28T00:04:47.810Z,99807.72
2022-07-28T00:05:49.887Z,99812.56
2022-07-28T00:06:51.721Z,99819.66
2022-07-28T00:07:53.464Z,99816.16
2022-07-28T00:08:55.170Z,99817.72
2022-07-28T00:10:00.373Z,99814.97
2022-07-28T00:11:02.486Z,99813.28
2022-07-28T00:12:04.393Z,99818.44
2022-07-28T00:13:06.879Z,99820.28
2022-07-28T00:14:08.681Z,99823.88
2022-07-28T00:15:11.184Z,99815.91
2022-07-28T00:16:12.977Z,99817.25
2022-07-28T00:17:14.627Z,99810.13
2022-07-28T00:18:16.380Z,99810.38
2022-07-28T00:19:18.270Z,99808.31
2022-07-28T00:20:20.928Z,99810.97
2022-07-28T00:21:22.687Z,99805.81
2022-07-28T00:22:25.039Z,99805.94
2022-07-28T00:23:39.106Z,99807.84
2022-07-28T00:24:41.314Z,99801.94
2022-07-28T00:25:42.888Z,99805.31
2022-07-28T00:26:46.640Z,99801.22
2022-07-28T00:27:48.609Z,99803.22
2022-07-28T00:28:50.277Z,99807.09
2022-07-28T00:29:51.816Z,99802.88
2022-07-28T00:30:55.331Z,99789.47
2022-07-28T00:31:57.431Z,99802.38
2022-07-28T00:32:59.190Z,99794.91
2022-07-28T00:34:00.856Z,99799.72
2022-07-28T00:35:02.542Z,99795.41
2022-07-28T00:36:04.625Z,99801.78
2022-07-28T00:37:08.227Z,99800.34
2022-07-28T00:38:15.093Z,99790.81
2022-07-28T00:39:17.093Z,99791.03
2022-07-28T00:40:18.720Z,99804.16
2022-07-28T00:41:20.696Z,99794.63
2022-07-28T00:42:22.347Z,99794.63
2022-07-28T00:43:23.923Z,99786.22
2022-07-28T00:44:25.482Z,99791.88
2022-07-28T00:45:27.048Z,99770.94
2022-07-28T00:46:28.776Z,99787.88
2022-07-28T00:47:33.773Z,99785.34
2022-07-28T00:48:45.555Z,99785.56
2022-07-28T00:49:48.220Z,99790.25
2022-07-28T00:50:50.028Z,99782.28
2022-07-28T00:51:51.693Z,99783.97
2022-07-28T00:52:53.674Z,99784.19
2022-07-28T00:53:56.430Z,99794.28
2022-07-28T00:54:59.112Z,99793.69
2022-07-28T00:56:02.610Z,99786.09
2022-07-28T00:57:07.529Z,99782.69
2022-07-28T00:58:09.938Z,99791.44
2022-07-28T00:59:11.532Z,99787.88
2022-07-28T01:00:13.442Z,99774.97
2022-07-28T01:01:19.696Z,99745.06
2022-07-28T01:02:21.847Z,99781.31
2022-07-28T01:03:24.671Z,99780.09
2022-07-28T01:04:26.875Z,99775.41
2022-07-28T01:05:44.484Z,99785.19
2022-07-28T01:06:57.690Z,99773.34
2022-07-28T01:08:10.366Z,99773.69
2022-07-28T01:09:42.054Z,99772.19
2022-07-28T01:11:05.702Z,99779.41
2022-07-28T01:12:26.276Z,99776.16
2022-07-28T01:13:36.960Z,99780.72
2022-07-28T01:14:45.503Z,99776.38
2022-07-28T01:16:01.595Z,99764.22
2022-07-28T01:17:11.599Z,99769.38
2022-07-28T01:18:17.698Z,99764.34
2022-07-28T01:19:36.167Z,99764.44
2022-07-28T01:20:41.913Z,99765.63
2022-07-28T01:21:47.070Z,99764.78
2022-07-28T01:23:12.924Z,99773.47
2022-07-28T01:24:26.368Z,99762.13
2022-07-28T01:25:41.123Z,99767.22
2022-07-28T01:27:01.064Z,99770.81
2022-07-28T01:28:17.727Z,99755.88
2022-07-28T01:29:41.226Z,99756.75
2022-07-28T01:30:46.372Z,99757.59
2022-07-28T01:31:57.099Z,99752.16
2022-07-28T01:33:07.076Z,99753.75
2022-07-28T01:34:13.293Z,99759.75
2022-07-28T01:35:20.835Z,99751.59
2022-07-28T01:36:27.766Z,99754.00
2022-07-28T01:37:30.907Z,99753.06
2022-07-28T01:38:35.331Z,99759.94
2022-07-28T01:39:39.678Z,99746.19
2022-07-28T01:40:45.544Z,99752.84
2022-07-28T01:41:52.514Z,99752.72
2022-07-28T01:42:58.972Z,99750.91
2022-07-28T01:44:05.932Z,99751.66
2022-07-28T01:45:09.092Z,99741.97
2022-07-28T01:46:12.710Z,99752.25
2022-07-28T01:47:16.127Z,99751.19
2022-07-28T01:48:20.562Z,99754.47
2022-07-28T01:49:23.663Z,99743.88
2022-07-28T01:50:27.224Z,99747.13
2022-07-28T01:51:31.107Z,99744.69
2022-07-28T01:52:34.481Z,99750.00
2022-07-28T01:53:38.335Z,99741.13
2022-07-28T01:54:44.320Z,99742.38
2022-07-28T01:55:47.681Z,99751.09
2022-07-28T01:56:51.929Z,99748.44
2022-07-28T01:57:55.518Z,99744.69
2022-07-28T01:59:00.495Z,99745.31
2022-07-28T02:00:03.783Z,99745.31
2022-07-28T02:01:07.002Z,99747.84
2022-07-28T02:02:11.085Z,99746.16
2022-07-28T02:03:13.962Z,99746.38
2022-07-28T02:04:18.139Z,99736.88
2022-07-28T02:05:22.232Z,99737.94
2022-07-28T02:06:25.126Z,99740.81
2022-07-28T02:07:31.565Z,99741.97
2022-07-28T02:08:35.745Z,99736.19
2022-07-28T02:09:39.159Z,99734.75
2022-07-28T02:10:44.009Z,99734.22
2022-07-28T02:11:47.721Z,99743.16
2022-07-28T02:12:51.581Z,99738.94
2022-07-28T02:13:55.308Z,99745.28
2022-07-28T02:14:58.329Z,99739.41
2022-07-28T02:16:02.533Z,99739.63
2022-07-28T02:17:10.999Z,99734.41
2022-07-28T02:18:13.094Z,99733.59
2022-07-28T02:19:18.239Z,99733.81
2022-07-28T02:20:21.272Z,99729.47
2022-07-28T02:21:26.622Z,99735.97
2022-07-28T02:22:28.364Z,99732.72
2022-07-28T02:23:29.937Z,99729.34
2022-07-28T02:24:33.720Z,99726.91
2022-07-28T02:25:38.321Z,99735.91
2022-07-28T02:26:46.436Z,99728.81
2022-07-28T02:27:52.435Z,99727.13
2022-07-28T02:28:58.063Z,99734.22
2022-07-28T02:30:08.824Z,99723.03
2022-07-28T02:31:20.188Z,99718.81
2022-07-28T02:32:38.838Z,99723.25
2022-07-28T02:33:59.942Z,99719.88
2022-07-28T02:35:13.710Z,99725.50
2022-07-28T02:36:28.269Z,99720.75
2022-07-28T02:37:37.785Z,99719.44
2022-07-28T02:38:42.176Z,99717.84
2022-07-28T02:39:56.545Z,99718.31
2022-07-28T02:41:10.609Z,99714.63
2022-07-28T02:42:28.288Z,99708.78
2022-07-28T02:43:49.137Z,99704.34
2022-07-28T02:45:06.922Z,99702.66
2022-07-28T02:46:13.765Z,99702.97
2022-07-28T02:47:21.786Z,99705.41
2022-07-28T02:48:29.636Z,99709.53
2022-07-28T02:49:34.033Z,99696.53
2022-07-28T02:50:35.749Z,99705.28
2022-07-28T02:51:40.573Z,99707.13
2022-07-28T02:52:43.441Z,99700.25
2022-07-28T02:53:46.224Z,99656.94
2022-07-28T02:54:49.611Z,99692.53
2022-07-28T02:55:52.785Z,99693.81
2022-07-28T02:56:57.704Z,99698.47
2022-07-28T02:58:00.815Z,99697.97
2022-07-28T02:59:09.124Z,99694.19
2022-07-28T03:00:11.604Z,99695.38
2022-07-28T03:01:17.477Z,99702.75
2022-07-28T03:02:22.905Z,99702.97
2022-07-28T03:03:25.241Z,99657.69
2022-07-28T03:04:47.014Z,99701.91
2022-07-28T03:05:49.481Z,99701.91
2022-07-28T03:06:51.075Z,99703.63
2022-07-28T03:07:52.828Z,99702.56
2022-07-28T03:08:54.528Z,99707.84
2022-07-28T03:09:56.550Z,99714.19
2022-07-28T03:11:12.098Z,99711.00
2022-07-28T03:12:15.076Z,99708.56
2022-07-28T03:13:16.715Z,99711.47
2022-07-28T03:14:18.383Z,99709.13
2022-07-28T03:15:20.108Z,99708.41
2022-07-28T03:16:21.823Z,99709.34
2022-07-28T03:17:24.535Z,99715.06
2022-07-28T03:18:28.952Z,99702.69
2022-07-28T03:19:30.969Z,99712.94
2022-07-28T03:20:33.577Z,99714.63
2022-07-28T03:21:35.146Z,99718.09
2022-07-28T03:22:36.800Z,99714.63
2022-07-28T03:23:43.253Z,99712.81
2022-07-28T03:24:49.586Z,99706.19
2022-07-28T03:25:54.889Z,99713.13
2022-07-28T03:27:19.390Z,99713.38
2022-07-28T03:28:21.993Z,99712.41
2022-07-28T03:29:25.667Z,99712.72
2022-07-28T03:30:31.830Z,99718.97
2022-07-28T03:31:35.848Z,99716.59
2022-07-28T03:32:42.044Z,99719.63
2022-07-28T03:33:43.600Z,99714.56
2022-07-28T03:34:45.261Z,99714.97
2022-07-28T03:35:50.971Z,99713.50
2022-07-28T03:37:01.993Z,99705.97
2022-07-28T03:38:15.651Z,99720.25
2022-07-28T03:39:21.402Z,99711.56
2022-07-28T03:40:26.998Z,99713.78
2022-07-28T03:41:30.008Z,99717.47
2022-07-28T03:42:33.704Z,99717.56
2022-07-28T03:43:36.111Z,99717.88
2022-07-28T03:44:39.586Z,99715.34
2022-07-28T03:45:41.775Z,99719.91
2022-07-28T03:46:48.270Z,99716.47
2022-07-28T03:47:55.020Z,99704.66
2022-07-28T03:48:56.607Z,99715.00
2022-07-28T03:49:58.225Z,99713.31
2022-07-28T03:50:59.887Z,99714.38
2022-07-28T03:52:01.625Z,99718.06
2022-07-28T03:53:03.325Z,99718.78
2022-07-28T03:54:04.924Z,99707.16
2022-07-28T03:55:07.787Z,99714.56
2022-07-28T03:56:09.366Z,99718.91
2022-07-28T03:57:11.173Z,99711.00
2022-07-28T03:58:12.810Z,99720.47
2022-07-28T03:59:14.518Z,99720.59
2022-07-28T04:00:17.558Z,99743.47
2022-07-28T04:01:19.293Z,99666.47
2022-07-28T04:02:20.930Z,99719.84
2022-07-28T04:03:43.210Z,99724.38
2022-07-28T04:04:44.346Z,99718.44
2022-07-28T04:05:47.367Z,99712.41
2022-07-28T04:06:52.054Z,99720.56
2022-07-28T04:07:53.586Z,99718.09
2022-07-28T04:08:55.104Z,99707.66
2022-07-28T04:09:56.702Z,99711.34
2022-07-28T04:10:58.405Z,99703.63
2022-07-28T04:12:00.060Z,99708.03
2022-07-28T04:13:01.908Z,99713.44
2022-07-28T04:14:03.465Z,99712.56
2022-07-28T04:15:13.312Z,99717.00
2022-07-28T04:16:15.029Z,99712.56
2022-07-28T04:17:16.688Z,99711.72
2022-07-28T04:18:19.559Z,99712.47
2022-07-28T04:19:21.103Z,99715.03
2022-07-28T04:20:25.027Z,99709.53
2022-07-28T04:21:26.801Z,99712.94
2022-07-28T04:22:28.335Z,99710.81
2022-07-28T04:23:30.853Z,99708.19
2022-07-28T04:24:32.641Z,99716.56
2022-07-28T04:25:34.223Z,99707.50
2022-07-28T04:26:35.808Z,99715.41
2022-07-28T04:27:37.560Z,99704.19
2022-07-28T04:28:39.202Z,99711.81
2022-07-28T04:29:40.803Z,99713.41
2022-07-28T04:30:44.286Z,99708.97
2022-07-28T04:31:46.450Z,99709.84
2022-07-28T04:32:49.758Z,99708.88
2022-07-28T04:33:51.318Z,99715.13
2022-07-28T04:34:52.944Z,99712.56
2022-07-28T04:35:54.571Z,99708.13
2022-07-28T04:36:56.470Z,99703.72
2022-07-28T04:38:01.094Z,99706.47
2022-07-28T04:39:03.329Z,99703.09
2022-07-28T04:40:09.598Z,99709.41
2022-07-28T04:41:11.283Z,99704.31
2022-07-28T04:42:12.905Z,99702.63
2022-07-28T04:43:15.051Z,99699.22
2022-07-28T04:44:17.761Z,99702.63
2022-07-28T04:45:19.891Z,99704.31
2022-07-28T04:46:21.530Z,99694.69
2022-07-28T04:47:24.507Z,99708.44
2022-07-28T04:48:26.198Z,99702.97
2022-07-28T04:49:27.789Z,99706.34
2022-07-28T04:50:29.493Z,99702.66
2022-07-28T04:51:31.088Z,99713.09
2022-07-28T04:52:33.846Z,99715.66
2022-07-28T04:53:35.678Z,99707.75
2022-07-28T04:54:38.040Z,99695.38
2022-07-28T04:55:39.756Z,99708.72
2022-07-28T04:56:41.363Z,99711.06
2022-07-28T04:57:43.520Z,99714.31
2022-07-28T04:58:45.304Z,99715.81
2022-07-28T04:59:46.973Z,99705.16
2022-07-28T05:00:50.474Z,99706.31
2022-07-28T05:01:52.454Z,99710.38
2022-07-28T05:02:54.036Z,99711.91
2022-07-28T05:03:55.655Z,99718.47
2022-07-28T05:04:57.294Z,99708.47
2022-07-28T05:05:58.904Z,99713.44
2022-07-28T05:07:00.515Z,99712.09
2022-07-28T05:08:02.063Z,99719.69
2022-07-28T05:09:03.849Z,99711.25
2022-07-28T05:10:07.210Z,99713.38
2022-07-28T05:11:09.393Z,99720.72
2022-07-28T05:12:11.529Z,99722.13
2022-07-28T05:13:13.118Z,99720.84
2022-07-28T05:14:15.671Z,99737.53
2022-07-28T05:15:17.542Z,99677.22
2022-07-28T05:16:20.057Z,99709.00
2022-07-28T05:17:21.674Z,99713.94
2022-07-28T05:18:23.294Z,99710.13
2022-07-28T05:19:24.975Z,99713.41
2022-07-28T05:20:26.586Z,99713.09
2022-07-28T05:21:28.221Z,99715.72
2022-07-28T05:22:30.731Z,99711.50
2022-07-28T05:23:32.670Z,99720.16
2022-07-28T05:24:34.329Z,99716.59
2022-07-28T05:25:37.221Z,99716.66
2022-07-28T05:26:38.892Z,99713.09
2022-07-28T05:27:40.447Z,99711.91
2022-07-28T05:28:42.084Z,99710.72
2022-07-28T05:29:47.679Z,99711.38
2022-07-28T05:30:49.664Z,99713.88
2022-07-28T05:31:51.245Z,99711.88
2022-07-28T05:32:53.860Z,99710.91
2022-07-28T05:33:55.527Z,99712.41
2022-07-28T05:34:59.363Z,99712.16
2022-07-28T05:36:01.264Z,99710.50
2022-07-28T05:37:02.861Z,99705.63
2022-07-28T05:38:08.934Z,99702.03
2022-07-28T05:39:12.437Z,99704.91
2022-07-28T05:40:15.822Z,99706.69
2022-07-28T05:41:17.617Z,99707.31
2022-07-28T05:42:19.159Z,99703.50
2022-07-28T05:43:21.128Z,99713.56
2022-07-28T05:44:22.751Z,99701.59
2022-07-28T05:45:24.588Z,99693.75
2022-07-28T05:46:26.224Z,99703.09
2022-07-28T05:47:27.811Z,99702.53
2022-07-28T05:48:30.289Z,99699.22
2022-07-28T05:49:31.872Z,99700.56
2022-07-28T05:50:33.589Z,99705.28
2022-07-28T05:51:38.411Z,99711.06
2022-07-28T05:52:44.026Z,99710.38
2022-07-28T05:53:45.696Z,99718.09
2022-07-28T05:54:47.316Z,99710.28
2022-07-28T05:56:00.015Z,99718.81
2022-07-28T05:57:02.559Z,99717.03
2022-07-28T05:58:04.157Z,99710.72
2022-07-28T05:59:09.798Z,99710.38
2022-07-28T06:00:17.393Z,99708.00
2022-07-28T06:01:19.077Z,99711.88
2022-07-28T06:02:20.760Z,99716.47
2022-07-28T06:03:22.368Z,99716.88
2022-07-28T06:04:27.872Z,99715.47
2022-07-28T06:05:31.325Z,99705.00
2022-07-28T06:06:32.969Z,99705.47
2022-07-28T06:07:42.733Z,99708.16
2022-07-28T06:08:47.352Z,99715.25
2022-07-28T06:09:48.933Z,99710.78
2022-07-28T06:11:09.232Z,99715.00
2022-07-28T06:12:10.854Z,99702.56
2022-07-28T06:13:14.352Z,99711.75
2022-07-28T06:14:16.177Z,99712.59
2022-07-28T06:15:21.564Z,99698.25
2022-07-28T06:16:23.565Z,99701.34
2022-07-28T06:17:25.260Z,99709.13
2022-07-28T06:18:26.880Z,99700.53
2022-07-28T06:19:28.447Z,99701.19
2022-07-28T06:20:30.242Z,99700.91
2022-07-28T06:21:33.004Z,99696.69
2022-07-28T06:22:45.952Z,99699.66
2022-07-28T06:23:47.610Z,99699.28
2022-07-28T06:24:49.302Z,99695.59
2022-07-28T06:25:52.037Z,99698.09
2022-07-28T06:26:53.596Z,99699.13
2022-07-28T06:27:57.862Z,99698.28
2022-07-28T06:28:59.493Z,99699.03
2022-07-28T06:30:01.064Z,99698.84
2022-07-28T06:31:02.669Z,99704.78
2022-07-28T06:32:04.862Z,99709.91
2022-07-28T06:33:07.808Z,99704.97
2022-07-28T06:34:09.362Z,99708.53
2022-07-28T06:35:14.664Z,99701.09
2022-07-28T06:36:16.316Z,99702.69
2022-07-28T06:37:17.882Z,99701.03
2022-07-28T06:38:20.666Z,99706.81
2022-07-28T06:39:22.245Z,99695.34
2022-07-28T06:40:24.074Z,99693.41
2022-07-28T06:41:25.743Z,99694.56
2022-07-28T06:42:27.662Z,99696.94
2022-07-28T06:43:29.225Z,99688.41
2022-07-28T06:44:54.866Z,99692.63
2022-07-28T06:45:52.312Z,99695.72
2022-07-28T06:46:54.225Z,99689.81
2022-07-28T06:47:55.918Z,99693.91
2022-07-28T06:48:57.547Z,99689.97
2022-07-28T06:49:59.829Z,99680.56
2022-07-28T06:51:01.514Z,99692.31
2022-07-28T06:52:03.281Z,99690.34
2022-07-28T06:53:05.225Z,99692.03
2022-07-28T06:54:11.075Z,99690.59
2022-07-28T06:55:16.021Z,99688.91
2022-07-28T06:56:19.571Z,99697.34
2022-07-28T06:57:23.262Z,99688.50
2022-07-28T06:58:34.726Z,99690.31
2022-07-28T06:59:36.317Z,99695.66
2022-07-28T07:00:38.051Z,99689.59
2022-07-28T07:01:39.691Z,99699.69
2022-07-28T07:02:41.855Z,99690.56
2022-07-28T07:03:43.995Z,99697.25
2022-07-28T07:04:45.993Z,99694.09
2022-07-28T07:05:51.545Z,99687.47
2022-07-28T07:06:54.986Z,99688.09
2022-07-28T07:07:56.577Z,99701.91
2022-07-28T07:08:58.363Z,99655.06
2022-07-28T07:09:59.994Z,99681.75
2022-07-28T07:11:01.588Z,99699.34
2022-07-28T07:12:04.253Z,99699.06
2022-07-28T07:13:05.819Z,99686.31
2022-07-28T07:14:07.424Z,99692.91
2022-07-28T07:15:09.744Z,99690.72
2022-07-28T07:16:11.359Z,99693.63
2022-07-28T07:17:13.040Z,99693.66
2022-07-28T07:18:14.684Z,99693.00
2022-07-28T07:19:16.498Z,99694.41
2022-07-28T07:20:18.484Z,99702.28
2022-07-28T07:21:20.462Z,99699.41
2022-07-28T07:22:24.324Z,99692.41
2022-07-28T07:23:25.968Z,99691.78
2022-07-28T07:24:27.533Z,99688.81
2022-07-28T07:25:29.971Z,99687.97
2022-07-28T07:26:31.656Z,99683.13
2022-07-28T07:27:33.243Z,99684.63
2022-07-28T07:28:34.878Z,99689.88
2022-07-28T07:29:36.451Z,99684.38
2022-07-28T07:30:38.144Z,99676.81
2022-07-28T07:31:40.314Z,99686.91
2022-07-28T07:32:42.272Z,99694.13
2022-07-28T07:33:43.905Z,99686.88
2022-07-28T07:34:45.846Z,99680.88
2022-07-28T07:35:47.473Z,99683.47
2022-07-28T07:36:48.990Z,99681.59
2022-07-28T07:37:50.638Z,99674.72
2022-07-28T07:38:52.207Z,99675.16
2022-07-28T07:39:54.737Z,99672.28
2022-07-28T07:40:56.614Z,99682.06
2022-07-28T07:41:58.205Z,99669.34
2022-07-28T07:43:00.080Z,99675.50
2022-07-28T07:44:01.766Z,99676.56
2022-07-28T07:45:04.049Z,99668.44
2022-07-28T07:46:07.236Z,99678.97
2022-07-28T07:47:09.726Z,99679.75
2022-07-28T07:48:11.473Z,99676.97
2022-07-28T07:49:13.162Z,99677.50
2022-07-28T07:50:14.887Z,99673.59
2022-07-28T07:51:16.482Z,99675.50
2022-07-28T07:52:18.270Z,99670.69
2022-07-28T07:53:19.829Z,99674.81
2022-07-28T07:54:21.863Z,99674.19
2022-07-28T07:55:23.430Z,99676.84
2022-07-28T07:56:24.986Z,99667.47
2022-07-28T07:57:26.608Z,99661.78
2022-07-28T07:58:28.314Z,99664.13
2022-07-28T07:59:30.795Z,99666.41
2022-07-28T08:00:32.569Z,99669.59
2022-07-28T08:01:34.258Z,99666.41
2022-07-28T08:02:39.476Z,99661.03
2022-07-28T08:03:42.575Z,99664.06
2022-07-28T08:04:44.293Z,99658.06
2022-07-28T08:05:46.419Z,99665.16
2022-07-28T08:06:51.931Z,99662.22
2022-07-28T08:07:53.542Z,99665.16
2022-07-28T08:08:55.954Z,99662.38
2022-07-28T08:09:57.507Z,99663.44
2022-07-28T08:10:59.077Z,99648.69
2022-07-28T08:12:00.888Z,99661.38
2022-07-28T08:13:03.327Z,99656.81
2022-07-28T08:14:04.941Z,99659.53
2022-07-28T08:15:07.386Z,99653.28
2022-07-28T08:16:09.193Z,99651.19
2022-07-28T08:17:10.747Z,99650.81
2022-07-28T08:18:12.380Z,99658.47
2022-07-28T08:19:13.978Z,99653.50
2022-07-28T08:20:15.660Z,99659.31
2022-07-28T08:21:17.809Z,99651.38
2022-07-28T08:22:22.080Z,99654.53
2022-07-28T08:23:26.267Z,99673.09
2022-07-28T08:24:33.680Z,99655.13
2022-07-28T08:25:38.584Z,99651.50
2022-07-28T08:26:40.202Z,99655.09
2022-07-28T08:27:41.807Z,99651.38
2022-07-28T08:28:43.629Z,99647.63
2022-07-28T08:29:45.281Z,99646.38
2022-07-28T08:30:46.919Z,99657.63
2022-07-28T08:31:48.950Z,99647.19
2022-07-28T08:32:56.403Z,99653.22
2022-07-28T08:33:58.854Z,99648.63
2022-07-28T08:35:30.461Z,99658.34
2022-07-28T08:36:22.807Z,99638.91
2022-07-28T08:37:24.408Z,99652.84
2022-07-28T08:38:26.348Z,99631.41
2022-07-28T08:39:28.511Z,99655.09
2022-07-28T08:40:32.654Z,99647.50
2022-07-28T08:41:46.769Z,99642.22
2022-07-28T08:42:48.280Z,99643.38
2022-07-28T08:43:52.967Z,99639.41
2022-07-28T08:45:06.065Z,99637.41
2022-07-28T08:46:07.723Z,99639.81
2022-07-28T08:47:12.836Z,99634.97
2022-07-28T08:48:14.692Z,99617.22
2022-07-28T08:49:17.460Z,99631.72
2022-07-28T08:50:24.347Z,99633.66
2022-07-28T08:51:27.882Z,99628.91
2022-07-28T08:52:31.270Z,99633.88
2022-07-28T08:53:35.679Z,99633.50
2022-07-28T08:54:41.649Z,99640.56
2022-07-28T08:55:43.850Z,99625.59
2022-07-28T08:56:47.980Z,99626.66
2022-07-28T08:57:50.861Z,99629.63
2022-07-28T08:58:53.026Z,99617.59
2022-07-28T08:59:54.939Z,99630.22
2022-07-28T09:00:57.400Z,99619.09
2022-07-28T09:01:59.278Z,99608.72
2022-07-28T09:03:03.563Z,99618.22
2022-07-28T09:04:07.335Z,99623.00
2022-07-28T09:05:09.564Z,99616.31
2022-07-28T09:06:11.760Z,99618.16
2022-07-28T09:07:14.095Z,99628.38
2022-07-28T09:08:19.049Z,99592.97
2022-07-28T09:09:21.612Z,99615.38
2022-07-28T09:10:23.449Z,99623.34
2022-07-28T09:11:28.080Z,99615.06
2022-07-28T09:12:29.760Z,99615.66
2022-07-28T09:13:31.313Z,99615.28
2022-07-28T09:14:34.101Z,99608.63
2022-07-28T09:15:37.630Z,99623.72
2022-07-28T09:16:39.337Z,99622.19
2022-07-28T09:17:42.153Z,99617.16
2022-07-28T09:18:44.267Z,99610.88
2022-07-28T09:19:45.894Z,99603.06
2022-07-28T09:20:47.558Z,99610.75
2022-07-28T09:21:49.526Z,99610.94
2022-07-28T09:23:03.145Z,99612.44
2022-07-28T09:24:05.136Z,99605.66
2022-07-28T09:25:18.542Z,99603.78
2022-07-28T09:26:20.328Z,99604.97
2022-07-28T09:27:21.881Z,99611.06
2022-07-28T09:28:23.947Z,99606.75
2022-07-28T09:29:25.551Z,99599.50
2022-07-28T09:30:32.214Z,99605.91
2022-07-28T09:31:33.884Z,99602.47
2022-07-28T09:32:36.130Z,99602.50
2022-07-28T09:33:41.731Z,99607.19
2022-07-28T09:34:51.803Z,99595.91
2022-07-28T09:35:56.450Z,99599.44
2022-07-28T09:36:58.192Z,99598.09
2022-07-28T09:37:59.899Z,99600.44
2022-07-28T09:39:01.575Z,99598.38
2022-07-28T09:40:11.381Z,99592.59
2022-07-28T09:41:13.231Z,99597.84
2022-07-28T09:42:15.254Z,99587.03
2022-07-28T09:43:16.803Z,99593.00
2022-07-28T09:44:22.731Z,99591.63
2022-07-28T09:45:28.016Z,99588.38
2022-07-28T09:46:30.544Z,99590.03
2022-07-28T09:47:34.236Z,99583.91
2022-07-28T09:48:50.264Z,99579.25
2022-07-28T09:49:52.557Z,99566.75
2022-07-28T09:51:14.865Z,99579.03
2022-07-28T09:52:38.170Z,99575.88
2022-07-28T09:53:40.149Z,99573.00
2022-07-28T09:55:03.469Z,99560.94
2022-07-28T09:56:05.168Z,99573.59
2022-07-28T09:57:10.459Z,99575.88
2022-07-28T09:58:12.099Z,99564.25
2022-07-28T09:59:14.818Z,99569.03
2022-07-28T10:00:28.342Z,99573.25
2022-07-28T10:01:35.827Z,99560.06
2022-07-28T10:02:39.553Z,99575.91
2022-07-28T10:03:43.088Z,99571.66
2022-07-28T10:04:44.836Z,99565.19
2022-07-28T10:05:53.780Z,99586.03
2022-07-28T10:07:03.824Z,99577.31
2022-07-28T10:08:06.466Z,99566.09
2022-07-28T10:09:12.606Z,99573.66
2022-07-28T10:10:14.204Z,99577.97
2022-07-28T10:11:18.494Z,99580.16
2022-07-28T10:12:24.979Z,99584.19
2022-07-28T10:13:26.640Z,99579.25
2022-07-28T10:14:32.767Z,99567.41
2022-07-28T10:15:52.849Z,99558.31
2022-07-28T10:16:54.640Z,99566.03
2022-07-28T10:17:56.351Z,99563.25
2022-07-28T10:18:59.984Z,99556.75
2022-07-28T10:20:06.933Z,99559.63
2022-07-28T10:21:10.121Z,99560.69
2022-07-28T10:22:11.827Z,99553.50
2022-07-28T10:23:15.013Z,99531.25
2022-07-28T10:24:23.807Z,99553.31
2022-07-28T10:25:29.744Z,99552.41
2022-07-28T10:26:36.771Z,99555.59
2022-07-28T10:27:41.401Z,99550.63
2022-07-28T10:28:51.218Z,99550.63
2022-07-28T10:29:59.513Z,99555.44
2022-07-28T10:31:03.530Z,99554.13
2022-07-28T10:32:07.008Z,99552.19
2022-07-28T10:33:14.785Z,99516.91
2022-07-28T10:34:44.653Z,99551.75
2022-07-28T10:35:54.336Z,99548.97
2022-07-28T10:36:59.520Z,99541.44
2022-07-28T10:38:12.719Z,99528.66
2022-07-28T10:39:21.975Z,99548.38
2022-07-28T10:40:27.715Z,99542.81
2022-07-28T10:41:39.648Z,99555.19
2022-07-28T10:42:41.687Z,99544.91
2022-07-28T10:43:45.648Z,99543.69
2022-07-28T10:44:47.972Z,99512.91
2022-07-28T10:46:06.906Z,99549.59
2022-07-28T10:47:10.258Z,99542.06
2022-07-28T10:48:21.696Z,99537.81
2022-07-28T10:49:32.628Z,99541.81
2022-07-28T10:50:35.632Z,99545.63
2022-07-28T10:51:59.855Z,99549.94
2022-07-28T10:53:03.788Z,99545.22
2022-07-28T10:54:25.973Z,99542.31
2022-07-28T10:55:57.771Z,99563.53
2022-07-28T10:57:04.796Z,99540.13
2022-07-28T10:58:35.229Z,99535.63
2022-07-28T10:59:58.094Z,99545.59
2022-07-28T11:01:06.021Z,99541.97
2022-07-28T11:02:08.401Z,99544.06
2022-07-28T11:03:14.002Z,99532.84
2022-07-28T11:04:41.678Z,99535.06
2022-07-28T11:05:44.118Z,99533.00
2022-07-28T11:06:47.986Z,99512.66
2022-07-28T11:07:50.442Z,99521.59
2022-07-28T11:08:52.768Z,99525.91
2022-07-28T11:10:15.298Z,99533.09
2022-07-28T11:11:42.663Z,99525.19
2022-07-28T11:12:46.740Z,99527.53
2022-07-28T11:13:50.364Z,99528.38
2022-07-28T11:14:53.169Z,99518.50
2022-07-28T11:15:55.885Z,99528.88
2022-07-28T11:17:00.358Z,99518.50
2022-07-28T11:18:06.674Z,99531.63
2022-07-28T11:19:40.258Z,99524.19
2022-07-28T11:20:51.659Z,99520.41
2022-07-28T11:22:19.395Z,99521.78
2022-07-28T11:23:47.585Z,99514.38
2022-07-28T11:25:19.785Z,99510.88
2022-07-28T11:26:22.908Z,99511.59
2022-07-28T11:27:39.767Z,99513.50
2022-07-28T11:29:00.224Z,99510.63
2022-07-28T11:30:01.896Z,99510.19
2022-07-28T11:31:03.659Z,99513.69
2022-07-28T11:32:05.679Z,99500.59
2022-07-28T11:33:09.428Z,99499.88
2022-07-28T11:34:11.821Z,99509.28
2022-07-28T11:35:13.643Z,99502.25
2022-07-28T11:36:15.340Z,99501.66
2022-07-28T11:37:16.896Z,99505.34
2022-07-28T11:38:18.728Z,99496.50
2022-07-28T11:39:24.286Z,99504.41
2022-07-28T11:40:33.848Z,99498.34
2022-07-28T11:41:35.655Z,99506.34
2022-07-28T11:42:37.285Z,99507.44
2022-07-28T11:43:41.400Z,99503.69
2022-07-28T11:44:43.841Z,99498.38
2022-07-28T11:45:51.448Z,99491.84
2022-07-28T11:47:16.673Z,99502.09
2022-07-28T11:48:25.201Z,99488.13
2022-07-28T11:49:27.704Z,99491.22
2022-07-28T11:50:30.378Z,99489.28
2022-07-28T11:51:38.772Z,99489.38
2022-07-28T11:52:54.902Z,99482.44
2022-07-28T11:53:56.583Z,99487.13
2022-07-28T11:55:01.500Z,99485.47
2022-07-28T11:56:05.490Z,99491.66
2022-07-28T11:57:09.905Z,99494.19
2022-07-28T11:58:24.583Z,99479.13
2022-07-28T11:59:36.666Z,99488.94
2022-07-28T12:00:39.017Z,99493.53
2022-07-28T12:01:53.179Z,99493.94
2022-07-28T12:02:55.643Z,99501.28
2022-07-28T12:03:59.369Z,99497.97
2022-07-28T12:05:08.648Z,99481.31
2022-07-28T12:06:11.602Z,99477.97
2022-07-28T12:07:16.027Z,99483.19
2022-07-28T12:08:18.816Z,99486.91
2022-07-28T12:09:25.617Z,99492.13
2022-07-28T12:11:57.437Z,99481.72
2022-07-28T12:13:10.218Z,99456.31
2022-07-28T12:14:14.968Z,99481.47
2022-07-28T12:15:17.360Z,99479.84
2022-07-28T12:16:19.250Z,99475.47
2022-07-28T12:17:22.912Z,99454.41
2022-07-28T12:18:24.807Z,99476.38
2022-07-28T12:19:32.873Z,99476.53
2022-07-28T12:20:34.822Z,99475.34
2022-07-28T12:21:46.371Z,99465.22
2022-07-28T12:23:08.959Z,99474.19
2022-07-28T12:24:12.944Z,99467.75
2022-07-28T12:25:14.513Z,99474.44
2022-07-28T12:26:40.498Z,99465.50
2022-07-28T12:27:48.077Z,99470.59
2022-07-28T12:28:50.533Z,99455.19
2022-07-28T12:30:02.598Z,99468.47
2022-07-28T12:31:14.925Z,99466.91
2022-07-28T12:32:17.559Z,99468.91
2022-07-28T12:33:29.329Z,99465.06
2022-07-28T12:34:35.043Z,99466.69
2022-07-28T12:35:36.801Z,99456.91
2022-07-28T12:36:38.875Z,99465.16
2022-07-28T12:37:42.940Z,99466.69
2022-07-28T12:38:45.691Z,99467.09
2022-07-28T12:39:51.150Z,99479.53
2022-07-28T12:40:54.035Z,99478.59
2022-07-28T12:42:03.178Z,99464.09
2022-07-28T12:43:04.830Z,99477.59
2022-07-28T12:44:06.869Z,99459.53